createdAt,value
2024-04-30T00:01:19.649Z,15
2024-04-30T00:03:22.040Z,14.9
2024-04-30T00:05:20.852Z,14.7
2024-04-30T00:07:22.049Z,14.6
2024-04-30T00:09:21.911Z,15
2024-04-30T00:11:18.853Z,14.8
2024-04-30T00:15:21.393Z,14.8
2024-04-30T00:17:20.704Z,15
2024-04-30T00:19:22.120Z,15
2024-04-30T00:21:21.488Z,14.7
2024-04-30T00:23:21.900Z,14.6
2024-04-30T00:25:22.439Z,14.7
2024-04-30T00:27:21.973Z,14.6
2024-04-30T00:31:22.132Z,14.5
2024-04-30T00:33:21.933Z,14.6
2024-04-30T00:35:21.119Z,14.6
2024-04-30T00:37:20.654Z,14.5
2024-04-30T00:41:20.189Z,14.6
2024-04-30T00:45:21.855Z,14
2024-04-30T00:47:19.562Z,14.1
2024-04-30T00:49:19.552Z,14
2024-04-30T00:51:21.928Z,13.8
2024-04-30T00:53:20.740Z,13.9
2024-04-30T00:55:21.979Z,13.8
2024-04-30T00:57:21.371Z,13.6
2024-04-30T00:59:21.462Z,13.8
2024-04-30T01:01:22.241Z,13.8
2024-04-30T01:03:22.326Z,13.8
2024-04-30T01:05:19.640Z,13.4
2024-04-30T01:07:22.665Z,13.8
2024-04-30T01:09:22.583Z,13.5
2024-04-30T01:11:19.277Z,13.6
2024-04-30T01:15:22.002Z,14
2024-04-30T01:17:20.716Z,13.6
2024-04-30T01:19:21.832Z,13.5
2024-04-30T01:21:22.322Z,13
2024-04-30T01:23:17.810Z,13.1
2024-04-30T01:25:22.490Z,13.2
2024-04-30T01:27:22.085Z,13.2
2024-04-30T01:29:19.206Z,12.9
2024-04-30T01:31:21.422Z,13.2
2024-04-30T01:33:21.620Z,13.4
2024-04-30T01:35:20.541Z,13.4
2024-04-30T01:37:22.207Z,12.9
2024-04-30T01:41:21.549Z,12.7
2024-04-30T01:45:22.040Z,13.3
2024-04-30T01:47:19.325Z,13.2
2024-04-30T01:49:21.804Z,13.3
2024-04-30T01:53:18.911Z,13
2024-04-30T01:55:22.099Z,13
2024-04-30T01:57:21.924Z,12.8
2024-04-30T01:59:19.598Z,12.8
2024-04-30T02:03:20.963Z,12.8
2024-04-30T02:05:24.554Z,12.7
2024-04-30T02:07:22.107Z,12.9
2024-04-30T02:11:21.743Z,13.1
2024-04-30T02:17:22.155Z,13.1
2024-04-30T02:19:20.154Z,12.8
2024-04-30T02:21:22.112Z,12.6
2024-04-30T02:23:22.124Z,12.7
2024-04-30T02:25:19.802Z,12.4
2024-04-30T02:27:19.208Z,13
2024-04-30T02:29:22.266Z,12.9
2024-04-30T02:31:20.678Z,13
2024-04-30T02:33:20.776Z,13
2024-04-30T02:37:22.148Z,12.5
2024-04-30T02:39:21.189Z,12.3
2024-04-30T02:41:18.944Z,12.3
2024-04-30T02:45:18.980Z,12.7
2024-04-30T02:47:21.699Z,12.7
2024-04-30T02:51:17.871Z,12.3
2024-04-30T02:53:21.311Z,12.3
2024-04-30T02:55:22.335Z,12
2024-04-30T02:57:21.770Z,12
2024-04-30T02:59:21.112Z,11.7
2024-04-30T03:01:22.523Z,11.8
2024-04-30T03:03:18.284Z,12.2
2024-04-30T03:05:21.847Z,12.4
2024-04-30T03:07:21.290Z,12.6
2024-04-30T03:09:21.508Z,12.3
2024-04-30T03:11:20.743Z,11.8
2024-04-30T03:13:22.123Z,11.6
2024-04-30T03:15:21.029Z,11.8
2024-04-30T03:17:20.701Z,11.7
2024-04-30T03:19:22.179Z,11.7
2024-04-30T03:21:19.406Z,11.9
2024-04-30T03:23:21.117Z,12.1
2024-04-30T03:27:22.567Z,12
2024-04-30T03:29:19.341Z,11.7
2024-04-30T03:31:21.625Z,11.7
2024-04-30T03:33:22.682Z,11.7
2024-04-30T03:35:23.552Z,11.1
2024-04-30T03:37:17.932Z,11.2
2024-04-30T03:39:22.152Z,11.4
2024-04-30T03:41:21.917Z,11.7
2024-04-30T03:43:21.171Z,11.8
2024-04-30T03:45:21.575Z,11.9
2024-04-30T03:47:21.214Z,11.6
2024-04-30T03:49:19.375Z,11.3
2024-04-30T03:51:22.218Z,11.1
2024-04-30T03:53:19.220Z,11.5
2024-04-30T03:55:21.517Z,10.8
2024-04-30T03:59:21.028Z,11.8
2024-04-30T04:01:19.007Z,12
2024-04-30T04:03:22.325Z,12
2024-04-30T04:05:18.242Z,11.9
2024-04-30T04:07:20.299Z,11.9
2024-04-30T04:11:19.745Z,11.9
2024-04-30T04:13:21.617Z,12
2024-04-30T04:15:22.496Z,11.9
2024-04-30T04:17:18.029Z,12.1
2024-04-30T04:19:21.764Z,11.9
2024-04-30T04:21:23.447Z,11.8
2024-04-30T04:23:20.304Z,11.9
2024-04-30T04:25:21.070Z,12.4
2024-04-30T04:27:22.749Z,12.7
2024-04-30T04:29:19.536Z,13.1
2024-04-30T04:31:22.153Z,12.8
2024-04-30T04:33:22.539Z,12.2
2024-04-30T04:35:20.893Z,12.1
2024-04-30T04:37:23.491Z,12.1
2024-04-30T04:39:22.612Z,12.1
2024-04-30T04:41:20.125Z,12
2024-04-30T04:43:22.083Z,12.3
2024-04-30T04:45:22.705Z,12.1
2024-04-30T04:47:20.309Z,11.9
2024-04-30T04:49:19.270Z,11.1
2024-04-30T04:51:22.561Z,11.4
2024-04-30T04:53:17.811Z,11.5
2024-04-30T04:55:20.874Z,12
2024-04-30T04:57:21.999Z,11.9
2024-04-30T04:59:21.357Z,12.4
2024-04-30T05:01:19.484Z,12.5
2024-04-30T05:03:22.508Z,12.8
2024-04-30T05:05:19.643Z,13
2024-04-30T05:07:21.740Z,13.3
2024-04-30T05:11:18.797Z,12.9
2024-04-30T05:13:19.679Z,12.6
2024-04-30T05:15:22.243Z,12.6
2024-04-30T05:17:22.144Z,12.8
2024-04-30T05:19:21.439Z,12.7
2024-04-30T05:23:19.536Z,13.2
2024-04-30T05:25:21.739Z,13.5
2024-04-30T05:27:19.904Z,13.3
2024-04-30T05:29:19.753Z,13.5
2024-04-30T05:31:20.452Z,13.8
2024-04-30T05:33:22.523Z,13.4
2024-04-30T05:35:19.396Z,13.9
2024-04-30T05:37:22.372Z,13.9
2024-04-30T05:39:22.537Z,14.2
2024-04-30T05:41:21.259Z,13.9
2024-04-30T05:43:20.523Z,14.2
2024-04-30T05:45:22.252Z,14.6
2024-04-30T05:47:19.442Z,15.7
2024-04-30T05:49:20.706Z,16.2
2024-04-30T05:51:22.919Z,16.2
2024-04-30T05:53:21.760Z,16.3
2024-04-30T05:55:21.311Z,16.4
2024-04-30T05:57:22.183Z,16.6
2024-04-30T05:59:21.963Z,16.6
2024-04-30T06:01:21.349Z,16.7
2024-04-30T06:03:22.039Z,16.9
2024-04-30T06:05:19.733Z,16.8
2024-04-30T06:07:21.135Z,16.6
2024-04-30T06:09:22.330Z,16.9
2024-04-30T06:11:22.045Z,17
2024-04-30T06:13:20.095Z,17.2
2024-04-30T06:17:19.256Z,17.4
2024-04-30T06:19:21.338Z,17.4
2024-04-30T06:23:19.739Z,17.2
2024-04-30T06:25:21.691Z,17.3
2024-04-30T06:27:21.183Z,17.4
2024-04-30T06:29:21.523Z,17.6
2024-04-30T06:31:19.671Z,17.5
2024-04-30T06:33:22.546Z,17.4
2024-04-30T06:35:17.901Z,17.4
2024-04-30T06:37:22.396Z,17.7
2024-04-30T06:39:22.464Z,17.7
2024-04-30T06:41:21.590Z,17.8
2024-04-30T06:43:21.116Z,17.7
2024-04-30T06:45:22.608Z,17.9
2024-04-30T06:47:19.731Z,18
2024-04-30T06:49:20.071Z,18.1
2024-04-30T06:53:20.979Z,18.2
2024-04-30T06:55:20.873Z,18
2024-04-30T06:59:19.723Z,18.2
2024-04-30T07:01:21.625Z,18.4
2024-04-30T07:03:22.511Z,18.4
2024-04-30T07:05:22.169Z,18.5
2024-04-30T07:07:20.245Z,18.5
2024-04-30T07:09:22.487Z,18.6
2024-04-30T07:11:19.348Z,18.7
2024-04-30T07:13:20.732Z,18.9
2024-04-30T07:15:22.402Z,19
2024-04-30T07:17:21.332Z,19
2024-04-30T07:19:20.376Z,19.1
2024-04-30T07:21:22.452Z,19.2
2024-04-30T07:23:20.671Z,19.1
2024-04-30T07:25:21.280Z,19.1
2024-04-30T07:27:22.419Z,19.1
2024-04-30T07:29:20.338Z,19.3
2024-04-30T07:31:20.647Z,19.3
2024-04-30T07:33:21.903Z,19.4
2024-04-30T07:35:20.357Z,19.5
2024-04-30T07:37:20.515Z,19.6
2024-04-30T07:39:22.455Z,19.6
2024-04-30T07:41:19.503Z,19.6
2024-04-30T07:43:19.070Z,19.6
2024-04-30T07:45:22.371Z,19.6
2024-04-30T07:47:18.269Z,19.6
2024-04-30T07:49:21.446Z,19.8
2024-04-30T07:51:22.812Z,19.9
2024-04-30T07:53:19.128Z,19.9
2024-04-30T07:55:19.796Z,19.9
2024-04-30T07:57:22.572Z,20
2024-04-30T07:59:20.699Z,20
2024-04-30T08:01:22.164Z,20
2024-04-30T08:05:23.000Z,20
2024-04-30T08:07:21.125Z,19.9
2024-04-30T08:09:22.196Z,19.9
2024-04-30T08:11:22.082Z,19.9
2024-04-30T08:13:20.937Z,20.1
2024-04-30T08:15:22.035Z,20.3
2024-04-30T08:17:22.402Z,20.3
2024-04-30T08:19:22.458Z,20.5
2024-04-30T08:21:22.580Z,20.5
2024-04-30T08:23:22.072Z,20.5
2024-04-30T08:25:20.414Z,20.6
2024-04-30T08:27:24.722Z,20.7
2024-04-30T08:31:20.622Z,20.7
2024-04-30T08:33:22.113Z,20.8
2024-04-30T08:35:22.028Z,20.8
2024-04-30T08:37:21.144Z,20.8
2024-04-30T08:45:20.610Z,21.1
2024-04-30T08:47:20.803Z,21
2024-04-30T08:49:28.397Z,21
2024-04-30T08:57:21.242Z,21.2
2024-04-30T08:59:20.692Z,21.2
2024-04-30T09:01:22.994Z,21.4
2024-04-30T09:03:19.789Z,21.4
2024-04-30T09:05:20.186Z,21.5
2024-04-30T09:09:19.637Z,21.6
2024-04-30T09:11:20.890Z,21.5
2024-04-30T09:13:22.576Z,21.4
2024-04-30T09:15:21.339Z,21.5
2024-04-30T09:17:19.570Z,21.5
2024-04-30T09:21:21.188Z,21.7
2024-04-30T09:23:20.949Z,21.7
2024-04-30T09:25:22.695Z,21.6
2024-04-30T09:27:22.374Z,21.6
2024-04-30T09:29:19.709Z,21.7
2024-04-30T09:31:22.918Z,21.8
2024-04-30T09:33:20.744Z,21.8
2024-04-30T09:35:20.004Z,21.8
2024-04-30T09:39:22.517Z,21.9
2024-04-30T09:41:19.351Z,21.9
2024-04-30T09:43:21.915Z,22
2024-04-30T09:45:22.028Z,22
2024-04-30T09:47:21.372Z,22
2024-04-30T09:49:22.057Z,22.1
2024-04-30T09:53:18.335Z,22.1
2024-04-30T09:55:21.937Z,22.1
2024-04-30T09:57:22.156Z,22.1
2024-04-30T09:59:21.335Z,22.1
2024-04-30T10:01:22.356Z,22.2
2024-04-30T10:03:22.221Z,22.2
2024-04-30T10:05:19.378Z,22.3
2024-04-30T10:09:21.746Z,22.3
2024-04-30T10:11:19.078Z,22.2
2024-04-30T10:13:22.305Z,22.3
2024-04-30T10:15:22.192Z,22.3
2024-04-30T10:17:18.118Z,22.4
2024-04-30T10:19:22.033Z,22.5
2024-04-30T10:23:19.341Z,22.4
2024-04-30T10:25:22.149Z,22.4
2024-04-30T10:27:21.599Z,22.5
2024-04-30T10:29:21.267Z,22.6
2024-04-30T10:33:22.431Z,22.6
2024-04-30T10:35:19.089Z,22.6
2024-04-30T10:37:22.209Z,22.6
2024-04-30T10:41:22.272Z,22.5
2024-04-30T10:45:18.297Z,22.5
2024-04-30T10:47:21.944Z,22.4
2024-04-30T10:49:22.172Z,22.4
2024-04-30T10:51:19.917Z,22.4
2024-04-30T10:53:21.970Z,22.4
2024-04-30T10:55:21.948Z,22.5
2024-04-30T10:57:17.961Z,22.6
2024-04-30T11:01:21.768Z,22.8
2024-04-30T11:03:19.764Z,22.8
2024-04-30T11:05:22.554Z,22.6
2024-04-30T11:09:18.344Z,22.6
2024-04-30T11:15:19.360Z,22.6
2024-04-30T11:17:22.513Z,22.6
2024-04-30T11:21:19.356Z,22.6
2024-04-30T11:23:22.165Z,22.6
2024-04-30T11:25:20.499Z,22.7
2024-04-30T11:27:20.195Z,22.8
2024-04-30T11:29:24.268Z,22.8
2024-04-30T11:33:21.485Z,23
2024-04-30T11:35:22.347Z,23.1
2024-04-30T11:37:22.295Z,23.2
2024-04-30T11:39:19.130Z,23.2
2024-04-30T11:41:22.191Z,23.2
2024-04-30T11:43:22.049Z,23.3
2024-04-30T11:45:19.694Z,23.1
2024-04-30T11:47:20.068Z,23
2024-04-30T11:49:22.098Z,23
2024-04-30T11:51:19.602Z,23.1
2024-04-30T11:53:22.219Z,23.3
2024-04-30T11:55:22.133Z,23.4
2024-04-30T11:57:22.592Z,23.3
2024-04-30T11:59:22.191Z,23.2
2024-04-30T12:01:22.408Z,23.2
2024-04-30T12:03:21.239Z,23.2
2024-04-30T12:05:21.987Z,23.3
2024-04-30T12:07:22.157Z,23.3
2024-04-30T12:09:22.387Z,23.3
2024-04-30T12:11:22.224Z,23.3
2024-04-30T12:13:21.733Z,23.3
2024-04-30T12:15:21.153Z,23.4
2024-04-30T12:17:22.527Z,23.5
2024-04-30T12:21:22.441Z,23.8
2024-04-30T12:23:22.237Z,23.8
2024-04-30T12:27:18.367Z,23.8
2024-04-30T12:31:22.385Z,23.7
2024-04-30T12:33:19.174Z,23.6
2024-04-30T12:35:22.482Z,23.5
2024-04-30T12:37:22.226Z,23.7
2024-04-30T12:39:20.016Z,23.6
2024-04-30T12:41:22.187Z,23.8
2024-04-30T12:43:22.047Z,24
2024-04-30T12:45:19.523Z,23.9
2024-04-30T12:47:22.012Z,23.9
2024-04-30T12:49:22.105Z,24
2024-04-30T12:51:20.740Z,23.9
2024-04-30T12:55:21.399Z,23.9
2024-04-30T12:57:19.412Z,23.8
2024-04-30T12:59:22.221Z,23.7
2024-04-30T13:01:24.494Z,23.9
2024-04-30T13:03:21.330Z,24.1
2024-04-30T13:05:22.376Z,24.1
2024-04-30T13:07:22.505Z,24.1
2024-04-30T13:09:19.441Z,24.2
2024-04-30T13:11:22.339Z,24.1
2024-04-30T13:13:22.664Z,24.1
2024-04-30T13:15:21.151Z,24.2
2024-04-30T13:17:22.371Z,24.4
2024-04-30T13:21:18.363Z,24.2
2024-04-30T13:23:22.032Z,24.2
2024-04-30T13:25:22.219Z,24.1
2024-04-30T13:27:19.868Z,24
2024-04-30T13:29:22.699Z,24.4
2024-04-30T13:33:22.475Z,24.3
2024-04-30T13:35:21.927Z,24.2
2024-04-30T13:37:21.530Z,24.4
2024-04-30T13:41:22.326Z,24.3
2024-04-30T13:43:19.560Z,24.3
2024-04-30T13:45:21.239Z,24.4
2024-04-30T13:47:22.023Z,24.3
2024-04-30T13:49:18.197Z,24.3
2024-04-30T13:51:22.022Z,24.3
2024-04-30T13:55:22.319Z,24.4
2024-04-30T13:57:22.002Z,24.3
2024-04-30T13:59:19.133Z,24.4
2024-04-30T14:01:21.950Z,24.3
2024-04-30T14:03:22.276Z,24.4
2024-04-30T14:05:22.497Z,24.4
2024-04-30T14:07:22.275Z,24.4
2024-04-30T14:09:21.434Z,24.3
2024-04-30T14:11:19.864Z,24.1
2024-04-30T14:17:19.846Z,24
2024-04-30T14:19:22.208Z,24.1
2024-04-30T14:21:22.044Z,24.1
2024-04-30T14:23:21.040Z,24
2024-04-30T14:25:22.381Z,23.9
2024-04-30T14:29:22.287Z,23.9
2024-04-30T14:31:23.819Z,23.9
2024-04-30T14:33:20.427Z,23.9
2024-04-30T14:35:22.382Z,23.9
2024-04-30T14:37:22.293Z,23.9
2024-04-30T14:39:21.020Z,23.9
2024-04-30T14:41:22.045Z,23.9
2024-04-30T14:43:19.376Z,23.9
2024-04-30T14:45:20.585Z,23.9
2024-04-30T14:49:22.289Z,23.8
2024-04-30T14:51:21.410Z,23.8
2024-04-30T14:53:22.164Z,23.8
2024-04-30T14:55:22.244Z,23.8
2024-04-30T14:57:19.505Z,23.8
2024-04-30T14:59:22.516Z,23.8
2024-04-30T15:03:19.958Z,23.8
2024-04-30T15:07:21.731Z,23.8
2024-04-30T15:09:21.413Z,23.8
2024-04-30T15:11:22.273Z,23.8
2024-04-30T15:13:22.509Z,23.7
2024-04-30T15:15:20.387Z,23.9
2024-04-30T15:17:22.071Z,23.8
2024-04-30T15:21:22.211Z,23.7
2024-04-30T15:23:21.363Z,23.7
2024-04-30T15:25:21.242Z,23.8
2024-04-30T15:27:22.187Z,23.8
2024-04-30T15:29:22.594Z,23.9
2024-04-30T15:31:21.353Z,24.1
2024-04-30T15:33:22.274Z,24.1
2024-04-30T15:35:22.333Z,24.1
2024-04-30T15:37:21.026Z,24
2024-04-30T15:39:22.267Z,24
2024-04-30T15:41:22.241Z,23.9
2024-04-30T15:43:19.647Z,24
2024-04-30T15:49:19.049Z,23.8
2024-04-30T15:51:22.284Z,23.8
2024-04-30T15:55:21.205Z,23.8
2024-04-30T15:57:22.434Z,23.8
2024-04-30T16:01:22.501Z,23.8
2024-04-30T16:03:22.193Z,23.8
2024-04-30T16:05:21.262Z,23.8
2024-04-30T16:11:20.512Z,23.8
2024-04-30T16:13:22.248Z,23.8
2024-04-30T16:15:21.819Z,23.8
2024-04-30T16:17:17.884Z,23.8
2024-04-30T16:19:22.308Z,23.8
2024-04-30T16:21:21.383Z,23.8
2024-04-30T16:23:22.353Z,23.8
2024-04-30T16:27:22.592Z,23.7
2024-04-30T16:29:20.651Z,23.8
2024-04-30T16:31:22.352Z,23.8
2024-04-30T16:33:22.418Z,23.7
2024-04-30T16:35:21.661Z,23.8
2024-04-30T16:37:22.786Z,23.7
2024-04-30T16:39:22.370Z,23.7
2024-04-30T16:41:21.943Z,23.7
2024-04-30T16:47:20.823Z,23.6
2024-04-30T16:49:22.313Z,23.6
2024-04-30T16:51:21.415Z,23.6
2024-04-30T16:53:22.602Z,23.5
2024-04-30T16:57:18.038Z,23.5
2024-04-30T16:59:22.273Z,23.4
2024-04-30T17:03:20.257Z,23.3
2024-04-30T17:05:21.898Z,23.3
2024-04-30T17:09:20.824Z,23.3
2024-04-30T17:11:22.469Z,23.2
2024-04-30T17:23:21.294Z,23.1
2024-04-30T17:25:20.952Z,23.1
2024-04-30T17:27:22.681Z,23.1
2024-04-30T17:29:20.415Z,23
2024-04-30T17:31:22.117Z,23
2024-04-30T17:35:20.245Z,23
2024-04-30T17:37:20.677Z,22.9
2024-04-30T17:39:22.526Z,22.9
2024-04-30T17:41:21.318Z,22.9
2024-04-30T17:43:21.069Z,22.9
2024-04-30T17:47:22.991Z,22.8
2024-04-30T17:49:18.488Z,22.8
2024-04-30T17:51:21.451Z,22.8
2024-04-30T17:55:20.854Z,22.8
2024-04-30T17:57:19.855Z,22.8
2024-04-30T17:59:22.753Z,22.7
2024-04-30T18:01:18.169Z,22.7
2024-04-30T18:03:21.491Z,22.7
2024-04-30T18:05:22.773Z,22.7
2024-04-30T18:07:21.131Z,22.6
2024-04-30T18:09:21.590Z,22.6
2024-04-30T18:11:22.674Z,22.6
2024-04-30T18:13:19.039Z,22.6
2024-04-30T18:15:22.203Z,22.6
2024-04-30T18:17:22.556Z,22.5
2024-04-30T18:19:19.461Z,22.5
2024-04-30T18:21:21.360Z,22.5
2024-04-30T18:23:22.721Z,22.5
2024-04-30T18:25:18.065Z,22.4
2024-04-30T18:27:21.945Z,22.4
2024-04-30T18:29:21.991Z,22.4
2024-04-30T18:31:21.938Z,22.3
2024-04-30T18:33:22.445Z,22.4
2024-04-30T18:35:22.747Z,22.2
2024-04-30T18:37:20.247Z,22.3
2024-04-30T18:39:21.357Z,22.3
2024-04-30T18:41:25.464Z,22.2
2024-04-30T18:43:20.789Z,22.3
2024-04-30T18:45:19.453Z,22.3
2024-04-30T18:47:22.483Z,22.2
2024-04-30T18:49:20.707Z,22.2
2024-04-30T18:51:21.437Z,22.1
2024-04-30T18:55:22.118Z,21.9
2024-04-30T18:57:20.420Z,22
2024-04-30T18:59:22.576Z,21.9
2024-04-30T19:01:20.684Z,21.6
2024-04-30T19:03:20.927Z,21.5
2024-04-30T19:05:22.129Z,21.4
2024-04-30T19:07:19.554Z,21.5
2024-04-30T19:09:20.503Z,21.6
2024-04-30T19:11:22.123Z,21.4
2024-04-30T19:13:20.902Z,21.6
2024-04-30T19:15:21.055Z,21.4
2024-04-30T19:19:21.642Z,21.3
2024-04-30T19:21:21.885Z,21.3
2024-04-30T19:23:22.986Z,21.4
2024-04-30T19:25:19.470Z,21.2
2024-04-30T19:27:20.400Z,21.3
2024-04-30T19:29:22.616Z,21.6
2024-04-30T19:31:21.477Z,21.1
2024-04-30T19:33:18.262Z,21.2
2024-04-30T19:35:22.612Z,21.4
2024-04-30T19:37:20.648Z,21
2024-04-30T19:39:21.405Z,21.2
2024-04-30T19:41:22.544Z,21
2024-04-30T19:43:19.616Z,21
2024-04-30T19:45:20.440Z,20.9
2024-04-30T19:49:18.287Z,20.9
2024-04-30T19:51:20.480Z,20.8
2024-04-30T19:53:22.584Z,20.8
2024-04-30T19:55:20.282Z,20.9
2024-04-30T19:57:21.515Z,20.9
2024-04-30T19:59:22.632Z,20.8
2024-04-30T20:01:19.990Z,20.7
2024-04-30T20:03:21.829Z,20.5
2024-04-30T20:07:22.466Z,20.4
2024-04-30T20:09:20.036Z,20.3
2024-04-30T20:11:21.154Z,20.1
2024-04-30T20:13:22.592Z,20
2024-04-30T20:15:21.384Z,19.9
2024-04-30T20:17:21.422Z,20.1
2024-04-30T20:21:18.473Z,20.1
2024-04-30T20:23:20.511Z,20.4
2024-04-30T20:25:22.684Z,20.3
2024-04-30T20:27:21.418Z,20.2
2024-04-30T20:29:21.914Z,20
2024-04-30T20:31:21.868Z,20
2024-04-30T20:33:21.147Z,19.7
2024-04-30T20:35:21.897Z,20.1
2024-04-30T20:37:22.657Z,19.8
2024-04-30T20:39:20.506Z,19.7
2024-04-30T20:41:21.852Z,19.9
2024-04-30T20:43:22.432Z,19.8
2024-04-30T20:45:21.921Z,19.7
2024-04-30T20:47:20.924Z,19.5
2024-04-30T20:49:21.591Z,19.4
2024-04-30T20:51:21.399Z,18.9
2024-04-30T20:53:21.931Z,19.1
2024-04-30T20:55:22.547Z,18.9
2024-04-30T20:57:18.124Z,19.1
2024-04-30T20:59:21.924Z,19.3
2024-04-30T21:03:19.986Z,19.2
2024-04-30T21:05:20.848Z,19.4
2024-04-30T21:07:22.790Z,19.4
2024-04-30T21:09:22.132Z,19.4
2024-04-30T21:11:22.188Z,19.7
2024-04-30T21:13:22.796Z,19.5
2024-04-30T21:15:19.569Z,19.3
2024-04-30T21:17:20.912Z,19.1
2024-04-30T21:19:22.922Z,18.9
2024-04-30T21:21:19.475Z,18.8
2024-04-30T21:23:21.869Z,18.5
2024-04-30T21:27:22.606Z,18.5
2024-04-30T21:29:18.476Z,18.6
2024-04-30T21:31:21.373Z,18.5
2024-04-30T21:35:19.237Z,18.2
2024-04-30T21:37:21.377Z,18.1
2024-04-30T21:41:19.474Z,18.2
2024-04-30T21:43:20.431Z,18.1
2024-04-30T21:47:22.661Z,18.1
2024-04-30T21:51:20.761Z,18.5
2024-04-30T21:53:23.032Z,18.5
2024-04-30T21:55:20.510Z,18.8
2024-04-30T21:57:19.539Z,18.1
2024-04-30T22:01:22.612Z,18.2
2024-04-30T22:03:19.683Z,18
2024-04-30T22:05:22.434Z,17.6
2024-04-30T22:09:19.601Z,17.5
2024-04-30T22:11:22.355Z,18.3
2024-04-30T22:13:22.392Z,18.6
2024-04-30T22:15:20.402Z,18.7
2024-04-30T22:17:22.259Z,18.7
2024-04-30T22:19:22.424Z,18.1
2024-04-30T22:21:22.822Z,17.9
2024-04-30T22:23:22.434Z,17.7
2024-04-30T22:25:22.541Z,17.5
2024-04-30T22:27:21.513Z,17
2024-04-30T22:29:22.480Z,16.7
2024-04-30T22:31:22.842Z,16.7
2024-04-30T22:33:21.147Z,16.5
2024-04-30T22:35:22.298Z,17
2024-04-30T22:37:20.092Z,17.6
2024-04-30T22:39:20.956Z,18.1
2024-04-30T22:41:22.172Z,18.2
2024-04-30T22:43:21.730Z,18.4
2024-04-30T22:45:19.588Z,18.5
2024-04-30T22:47:22.460Z,18.2
2024-04-30T22:49:22.450Z,17.7
2024-04-30T22:51:21.005Z,17.1
2024-04-30T22:53:22.154Z,17.1
2024-04-30T22:57:21.836Z,17.7
2024-04-30T23:01:22.643Z,16.8
2024-04-30T23:03:19.738Z,16.4
2024-04-30T23:05:22.163Z,16.1
2024-04-30T23:07:22.143Z,16.3
2024-04-30T23:09:20.501Z,16.1
2024-04-30T23:11:22.353Z,16.2
2024-04-30T23:13:22.368Z,16.1
2024-04-30T23:15:19.712Z,16.2
2024-04-30T23:17:22.756Z,16.2
2024-04-30T23:19:22.530Z,16.2
2024-04-30T23:21:20.949Z,16.2
2024-04-30T23:23:22.635Z,16.2
2024-04-30T23:25:22.505Z,16.2
2024-04-30T23:27:21.513Z,16.3
2024-04-30T23:29:23.939Z,16.3
2024-04-30T23:31:20.326Z,16.4
2024-04-30T23:33:21.424Z,16.7
2024-04-30T23:35:22.169Z,16.5
2024-04-30T23:37:19.624Z,16.5
2024-04-30T23:39:20.040Z,16.8
2024-04-30T23:41:22.287Z,16.7
2024-04-30T23:43:22.803Z,16.6
2024-04-30T23:45:20.930Z,16.9
2024-04-30T23:49:20.866Z,16.7
2024-04-30T23:51:20.973Z,16.6
2024-04-30T23:53:22.571Z,16.7
2024-04-30T23:55:22.524Z,16.7
2024-04-30T23:57:21.809Z,16.7
2024-04-30T23:59:22.343Z,16.5
